Time;durP1;ratioP1;P1;durP2;ratioP2;P2;SDS_P1;SDS_P2;PMS_P1;PMS_P2;Temp;Humidity;BMP_temperature;BMP_pressure;BME280_temperature;BME280_humidity;BME280_pressure;Samples;Min_cycle;Max_cycle;Signal;HPM_P1;HPM_P2
2024/01/06 00:00:38;;;;;;;4.75;1.50;;;;;;;;;;8271431;28;20052;-59
2024/01/06 00:04:38;;;;;;;4.30;1.88;;;;;;;;;;8271457;28;20034;-58
2024/01/06 00:08:38;;;;;;;4.03;1.40;;;;;;;;;;8266321;28;20033;-59
2024/01/06 00:12:38;;;;;;;4.72;1.65;;;;;;;;;;8267700;28;20024;-58
2024/01/06 00:16:38;;;;;;;6.22;1.80;;;;;;;;;;8261232;28;20034;-59
2024/01/06 00:20:39;;;;;;;4.30;1.77;;;;;;;;;;8260602;28;20903;-60
2024/01/06 00:24:39;;;;;;;4.00;1.50;;;;;;;;;;8261236;28;20025;-59
2024/01/06 00:28:39;;;;;;;3.63;1.42;;;;;;;;;;8255199;28;20033;-59
2024/01/06 00:32:40;;;;;;;3.10;1.58;;;;;;;;;;8259695;28;20068;-59
2024/01/06 00:36:40;;;;;;;5.90;1.45;;;;;;;;;;8259676;28;20025;-59
2024/01/06 00:40:40;;;;;;;2.90;1.70;;;;;;;;;;8262909;28;20103;-59
2024/01/06 00:44:40;;;;;;;5.10;1.43;;;;;;;;;;8259574;28;20031;-59
2024/01/06 00:48:41;;;;;;;3.80;1.55;;;;;;;;;;8239210;28;20276;-59
2024/01/06 00:52:41;;;;;;;8.80;1.77;;;;;;;;;;8249605;28;20025;-59
2024/01/06 00:56:42;;;;;;;2.05;1.30;;;;;;;;;;8256136;28;20037;-58
2024/01/06 01:00:42;;;;;;;3.08;1.35;;;;;;;;;;8250223;28;20389;-58
2024/01/06 01:04:43;;;;;;;3.33;1.30;;;;;;;;;;8255150;28;20029;-58
2024/01/06 01:08:43;;;;;;;3.65;1.50;;;;;;;;;;8254847;28;20017;-59
2024/01/06 01:12:43;;;;;;;3.33;1.40;;;;;;;;;;8252741;28;20025;-58
2024/01/06 01:16:43;;;;;;;1.20;1.10;;;;;;;;;;8256056;28;20903;-58
2024/01/06 01:20:43;;;;;;;3.42;1.05;;;;;;;;;;8251628;28;20022;-58
2024/01/06 01:24:45;;;;;;;1.40;1.00;;;;;;;;;;8256800;28;20082;-58
2024/01/06 01:28:45;;;;;;;1.45;1.10;;;;;;;;;;8253166;28;20492;-58
2024/01/06 01:32:45;;;;;;;3.42;1.10;;;;;;;;;;8256418;28;20033;-58
2024/01/06 01:36:45;;;;;;;4.72;1.35;;;;;;;;;;8255868;28;20025;-58
2024/01/06 01:40:45;;;;;;;2.95;1.38;;;;;;;;;;8256189;28;20398;-61
2024/01/06 01:44:45;;;;;;;4.70;1.33;;;;;;;;;;8255627;28;20090;-58
2024/01/06 01:48:46;;;;;;;4.03;1.55;;;;;;;;;;8253595;28;20041;-58
2024/01/06 01:52:46;;;;;;;2.15;1.13;;;;;;;;;;8253235;28;20062;-58
2024/01/06 01:56:46;;;;;;;2.80;1.10;;;;;;;;;;8250550;28;20037;-58
2024/01/06 02:00:46;;;;;;;6.13;1.60;;;;;;;;;;8251084;28;20041;-59
2024/01/06 02:04:46;;;;;;;3.13;1.33;;;;;;;;;;8256302;28;20021;-59
2024/01/06 02:08:47;;;;;;;4.60;1.67;;;;;;;;;;8254741;28;20132;-58
2024/01/06 02:12:48;;;;;;;1.95;1.50;;;;;;;;;;8256232;28;20040;-58
2024/01/06 02:16:48;;;;;;;4.90;1.40;;;;;;;;;;8252205;28;20040;-58
2024/01/06 02:20:49;;;;;;;1.00;0.98;;;;;;;;;;8250728;28;21416;-58
2024/01/06 02:24:50;;;;;;;1.20;1.10;;;;;;;;;;8259771;28;20160;-59
2024/01/06 02:28:50;;;;;;;4.28;1.42;;;;;;;;;;8268067;28;20144;-57
2024/01/06 02:32:50;;;;;;;3.45;1.42;;;;;;;;;;8262839;28;20152;-58
2024/01/06 02:36:50;;;;;;;2.42;1.40;;;;;;;;;;8267574;28;20871;-59
2024/01/06 02:40:50;;;;;;;8.35;1.50;;;;;;;;;;8265481;28;21104;-59
2024/01/06 02:44:51;;;;;;;6.22;1.98;;;;;;;;;;8267010;28;20124;-60
2024/01/06 02:48:51;;;;;;;4.60;1.48;;;;;;;;;;8262833;28;20034;-59
2024/01/06 02:52:51;;;;;;;3.47;1.70;;;;;;;;;;8266741;28;20037;-59
2024/01/06 02:56:51;;;;;;;3.63;1.40;;;;;;;;;;8266296;28;20069;-59
2024/01/06 03:00:51;;;;;;;4.18;1.60;;;;;;;;;;8268987;28;20042;-59
2024/01/06 03:04:52;;;;;;;3.72;1.73;;;;;;;;;;8270556;28;20037;-59
2024/01/06 03:08:52;;;;;;;4.40;1.65;;;;;;;;;;8260670;28;20428;-58
2024/01/06 03:12:52;;;;;;;2.92;1.45;;;;;;;;;;8268834;28;20095;-59
2024/01/06 03:16:53;;;;;;;4.95;1.73;;;;;;;;;;8270938;28;23204;-58
2024/01/06 03:20:53;;;;;;;3.20;1.30;;;;;;;;;;8264499;28;20028;-59
2024/01/06 03:24:53;;;;;;;3.83;1.60;;;;;;;;;;8263992;28;20160;-59
2024/01/06 03:28:54;;;;;;;3.47;1.65;;;;;;;;;;8265191;28;23146;-58
2024/01/06 03:32:54;;;;;;;4.75;1.48;;;;;;;;;;8264216;28;20051;-59
2024/01/06 03:36:54;;;;;;;3.97;1.90;;;;;;;;;;8264830;28;20033;-59
2024/01/06 03:40:54;;;;;;;2.17;1.50;;;;;;;;;;8262802;28;20040;-59
2024/01/06 03:44:55;;;;;;;4.68;1.77;;;;;;;;;;8261637;28;20033;-58
2024/01/06 03:48:55;;;;;;;3.58;1.85;;;;;;;;;;8263033;28;20046;-59
2024/01/06 03:52:55;;;;;;;3.50;1.60;;;;;;;;;;8259862;28;20083;-58
2024/01/06 03:56:55;;;;;;;1.77;1.60;;;;;;;;;;8261755;28;20033;-59
2024/01/06 04:00:55;;;;;;;6.22;1.98;;;;;;;;;;8257672;28;20107;-59
2024/01/06 04:04:56;;;;;;;4.03;2.10;;;;;;;;;;8262302;28;20106;-57
2024/01/06 04:08:56;;;;;;;2.58;1.90;;;;;;;;;;8258538;28;20025;-59
2024/01/06 04:12:56;;;;;;;2.95;1.90;;;;;;;;;;8263080;28;20455;-59
2024/01/06 04:16:56;;;;;;;4.10;1.73;;;;;;;;;;8262338;28;20042;-59
2024/01/06 04:20:56;;;;;;;3.30;1.90;;;;;;;;;;8260284;28;20096;-60
2024/01/06 04:24:57;;;;;;;3.70;1.65;;;;;;;;;;8262623;28;20037;-58
2024/01/06 04:28:57;;;;;;;2.50;1.80;;;;;;;;;;8259456;28;20882;-59
2024/01/06 04:32:57;;;;;;;3.08;1.77;;;;;;;;;;8261001;28;20041;-59
2024/01/06 04:36:57;;;;;;;3.75;2.00;;;;;;;;;;8260665;28;20032;-58
2024/01/06 04:40:58;;;;;;;6.28;2.15;;;;;;;;;;8258953;28;20101;-58
2024/01/06 04:44:58;;;;;;;2.70;1.92;;;;;;;;;;8259958;28;20026;-59
2024/01/06 04:48:58;;;;;;;6.03;1.88;;;;;;;;;;8255575;28;20397;-59
2024/01/06 04:52:58;;;;;;;4.20;2.10;;;;;;;;;;8259748;28;20036;-58
2024/01/06 04:56:59;;;;;;;5.32;2.17;;;;;;;;;;8265315;28;20083;-59
2024/01/06 05:00:59;;;;;;;8.60;3.13;;;;;;;;;;8256503;28;20037;-60
2024/01/06 05:04:59;;;;;;;4.18;2.20;;;;;;;;;;8256752;28;20371;-59
2024/01/06 05:08:59;;;;;;;3.05;2.22;;;;;;;;;;8258739;28;20010;-60
2024/01/06 05:13:00;;;;;;;3.85;2.08;;;;;;;;;;8255461;28;20108;-59
2024/01/06 05:17:00;;;;;;;4.03;2.15;;;;;;;;;;8255413;28;20134;-59
2024/01/06 05:21:01;;;;;;;4.35;2.20;;;;;;;;;;8261836;28;20144;-59
2024/01/06 05:25:01;;;;;;;4.00;2.53;;;;;;;;;;8256632;28;20850;-59
2024/01/06 05:29:01;;;;;;;6.10;2.00;;;;;;;;;;8253334;28;20018;-59
2024/01/06 05:33:02;;;;;;;4.57;1.97;;;;;;;;;;8256891;28;20093;-60
2024/01/06 05:37:02;;;;;;;4.35;2.20;;;;;;;;;;8268545;28;21033;-59
2024/01/06 05:41:03;;;;;;;4.13;2.70;;;;;;;;;;8274751;28;20036;-59
2024/01/06 05:45:03;;;;;;;3.60;2.30;;;;;;;;;;8273794;28;20152;-60
2024/01/06 05:49:04;;;;;;;3.72;2.78;;;;;;;;;;8276421;28;20022;-58
2024/01/06 05:53:04;;;;;;;5.90;3.00;;;;;;;;;;8278653;28;20593;-59
2024/01/06 05:57:04;;;;;;;4.40;2.60;;;;;;;;;;8272324;28;20036;-58
2024/01/06 06:01:05;;;;;;;6.15;2.55;;;;;;;;;;8274920;28;20037;-59
2024/01/06 06:05:06;;;;;;;9.68;4.70;;;;;;;;;;8267450;28;20033;-58
2024/01/06 06:09:07;;;;;;;3.28;2.50;;;;;;;;;;8256405;28;20021;-58
2024/01/06 06:13:10;;;;;;;5.72;2.38;;;;;;;;;;8260331;28;20049;-59
2024/01/06 06:17:10;;;;;;;3.92;2.38;;;;;;;;;;8258443;28;20037;-58
2024/01/06 06:21:11;;;;;;;3.63;2.38;;;;;;;;;;8257418;28;20270;-58
2024/01/06 06:25:11;;;;;;;5.03;2.90;;;;;;;;;;8256137;28;20024;-58
2024/01/06 06:29:11;;;;;;;3.55;2.00;;;;;;;;;;8254900;28;20654;-59
2024/01/06 06:33:11;;;;;;;5.50;2.37;;;;;;;;;;8254231;28;20029;-58
2024/01/06 06:37:12;;;;;;;5.05;2.72;;;;;;;;;;8258653;28;20279;-58
2024/01/06 06:41:12;;;;;;;4.57;2.40;;;;;;;;;;8252500;28;20052;-58
2024/01/06 06:45:12;;;;;;;5.95;2.88;;;;;;;;;;8256919;28;20288;-58
2024/01/06 06:49:12;;;;;;;8.07;2.60;;;;;;;;;;8272412;28;20033;-58
2024/01/06 06:53:13;;;;;;;5.53;3.00;;;;;;;;;;8266150;28;20018;-58
2024/01/06 06:57:13;;;;;;;4.13;2.75;;;;;;;;;;8270263;28;20021;-59
2024/01/06 07:01:15;;;;;;;5.00;3.08;;;;;;;;;;8267014;28;20510;-59
2024/01/06 07:05:15;;;;;;;5.10;3.10;;;;;;;;;;8273446;28;20021;-59
2024/01/06 07:09:16;;;;;;;4.75;2.53;;;;;;;;;;8273430;28;20533;-59
2024/01/06 07:13:16;;;;;;;4.57;3.13;;;;;;;;;;8274220;28;20056;-59
2024/01/06 07:17:17;;;;;;;5.40;3.25;;;;;;;;;;8265721;28;20034;-58
2024/01/06 07:21:17;;;;;;;4.55;3.10;;;;;;;;;;8260644;28;20059;-58
2024/01/06 07:25:17;;;;;;;6.47;3.25;;;;;;;;;;8262403;28;21209;-58
2024/01/06 07:29:18;;;;;;;7.43;2.83;;;;;;;;;;8259816;28;20024;-57
2024/01/06 07:33:19;;;;;;;4.22;3.10;;;;;;;;;;8266100;28;20430;-58
2024/01/06 07:37:19;;;;;;;4.33;2.90;;;;;;;;;;8261845;28;20837;-57
2024/01/06 07:41:20;;;;;;;4.10;3.10;;;;;;;;;;8260641;28;20490;-56
2024/01/06 07:45:20;;;;;;;4.43;2.92;;;;;;;;;;8261158;28;20110;-58
2024/01/06 07:49:20;;;;;;;7.80;3.30;;;;;;;;;;8258141;28;20029;-58
2024/01/06 07:53:20;;;;;;;4.32;2.85;;;;;;;;;;8262264;28;20029;-60
2024/01/06 07:57:20;;;;;;;5.05;2.95;;;;;;;;;;8262557;28;20022;-59
2024/01/06 08:01:21;;;;;;;4.88;2.75;;;;;;;;;;8262803;28;20091;-59
2024/01/06 08:05:21;;;;;;;6.13;3.30;;;;;;;;;;8260828;28;20032;-60
2024/01/06 08:09:23;;;;;;;3.95;3.00;;;;;;;;;;8257140;28;20040;-59
2024/01/06 08:13:23;;;;;;;4.25;2.88;;;;;;;;;;8261340;28;20128;-59
2024/01/06 08:17:23;;;;;;;3.63;3.10;;;;;;;;;;8259359;28;20748;-59
2024/01/06 08:21:23;;;;;;;4.05;2.45;;;;;;;;;;8260215;28;20017;-59
2024/01/06 08:25:24;;;;;;;5.07;2.95;;;;;;;;;;8262063;28;20108;-59
2024/01/06 08:29:24;;;;;;;4.47;3.08;;;;;;;;;;8261443;28;20029;-59
2024/01/06 08:33:24;;;;;;;8.60;4.35;;;;;;;;;;8258512;28;20029;-59
2024/01/06 08:37:24;;;;;;;3.90;2.58;;;;;;;;;;8260338;28;20030;-59
2024/01/06 08:41:25;;;;;;;4.18;2.20;;;;;;;;;;8262483;28;20029;-59
2024/01/06 08:45:25;;;;;;;3.00;2.30;;;;;;;;;;8261043;28;20044;-58
2024/01/06 08:49:25;;;;;;;2.33;2.13;;;;;;;;;;8256590;28;20071;-58
2024/01/06 08:53:25;;;;;;;3.08;2.28;;;;;;;;;;8262898;28;20037;-59
2024/01/06 08:57:26;;;;;;;3.25;2.50;;;;;;;;;;8258019;28;20069;-62
2024/01/06 09:01:26;;;;;;;2.90;2.30;;;;;;;;;;8262595;28;20041;-57
2024/01/06 09:05:26;;;;;;;3.42;3.08;;;;;;;;;;8262757;28;20912;-58
2024/01/06 09:09:28;;;;;;;3.47;2.33;;;;;;;;;;8281951;28;20037;-57
2024/01/06 09:13:28;;;;;;;3.15;2.42;;;;;;;;;;8286714;28;20017;-57
2024/01/06 09:17:28;;;;;;;4.10;2.30;;;;;;;;;;8281371;28;20155;-58
2024/01/06 09:21:28;;;;;;;2.70;2.40;;;;;;;;;;8279750;28;20017;-58
2024/01/06 09:25:28;;;;;;;3.90;2.40;;;;;;;;;;8273368;28;20037;-57
2024/01/06 09:29:29;;;;;;;3.63;2.53;;;;;;;;;;8400300;23;20049;-58
2024/01/06 09:33:29;;;;;;;4.32;2.42;;;;;;;;;;8277183;28;20450;-58
2024/01/06 09:37:29;;;;;;;5.13;2.67;;;;;;;;;;8281529;28;20025;-58
2024/01/06 09:41:30;;;;;;;3.95;2.70;;;;;;;;;;8256046;28;20021;-60
2024/01/06 09:45:31;;;;;;;2.80;2.40;;;;;;;;;;8460148;23;20046;-61
2024/01/06 09:49:32;;;;;;;3.33;2.40;;;;;;;;;;8223693;28;20357;-58
2024/01/06 09:53:33;;;;;;;3.85;2.28;;;;;;;;;;8222426;28;20316;-59
2024/01/06 09:57:34;;;;;;;3.10;2.42;;;;;;;;;;8223801;28;20141;-58
2024/01/06 10:01:34;;;;;;;2.72;2.50;;;;;;;;;;8214634;28;20066;-58
2024/01/06 10:05:34;;;;;;;3.10;1.80;;;;;;;;;;8217918;28;20032;-60
2024/01/06 10:09:34;;;;;;;2.65;1.90;;;;;;;;;;8218282;28;20033;-57
2024/01/06 10:13:35;;;;;;;3.30;2.00;;;;;;;;;;8226420;28;20025;-58
2024/01/06 10:17:39;;;;;;;3.90;2.13;;;;;;;;;;8220692;28;20030;-58
2024/01/06 10:21:39;;;;;;;2.28;1.85;;;;;;;;;;8216937;28;20305;-58
2024/01/06 10:25:42;;;;;;;3.15;2.40;;;;;;;;;;8218875;28;20038;-58
2024/01/06 10:29:42;;;;;;;3.45;2.00;;;;;;;;;;8219313;28;20134;-59
2024/01/06 10:33:42;;;;;;;2.47;2.10;;;;;;;;;;8216166;28;20528;-58
2024/01/06 10:37:43;;;;;;;2.10;1.90;;;;;;;;;;8218737;28;20025;-58
2024/01/06 10:41:44;;;;;;;2.85;2.40;;;;;;;;;;8215322;28;20281;-58
2024/01/06 10:45:45;;;;;;;2.78;1.83;;;;;;;;;;8218865;28;20052;-59
2024/01/06 10:49:46;;;;;;;2.90;2.45;;;;;;;;;;8222123;28;20486;-59
2024/01/06 10:53:48;;;;;;;2.67;2.40;;;;;;;;;;8221162;28;20445;-59
2024/01/06 10:57:48;;;;;;;2.75;2.30;;;;;;;;;;8223149;28;20023;-59
2024/01/06 11:01:49;;;;;;;3.47;2.10;;;;;;;;;;8219583;28;20103;-58
2024/01/06 11:05:49;;;;;;;2.33;1.90;;;;;;;;;;8224098;28;21475;-59
2024/01/06 11:09:57;;;;;;;4.38;2.17;;;;;;;;;;8226640;28;20038;-59
2024/01/06 11:14:16;;;;;;;2.40;2.05;;;;;;;;;;8227847;28;20049;-58
2024/01/06 11:18:37;;;;;;;2.55;2.35;;;;;;;;;;8215991;28;20989;-59
2024/01/06 11:22:39;;;;;;;3.35;1.90;;;;;;;;;;8225823;28;20022;-59
2024/01/06 11:26:41;;;;;;;1.95;1.77;;;;;;;;;;8222237;28;20113;-59
2024/01/06 11:30:42;;;;;;;3.17;1.92;;;;;;;;;;8219106;28;20073;-59
2024/01/06 11:34:42;;;;;;;2.20;1.90;;;;;;;;;;8225531;28;20286;-59
2024/01/06 11:38:46;;;;;;;2.20;2.00;;;;;;;;;;8226986;28;21339;-59
2024/01/06 11:43:06;;;;;;;1.92;1.83;;;;;;;;;;8232505;28;20029;-57
2024/01/06 11:47:07;;;;;;;2.45;2.05;;;;;;;;;;8224949;28;20251;-58
2024/01/06 11:51:08;;;;;;;2.50;2.10;;;;;;;;;;8229369;28;20033;-59
2024/01/06 11:55:09;;;;;;;2.03;1.80;;;;;;;;;;8231804;28;20953;-59
2024/01/06 11:59:10;;;;;;;3.85;1.90;;;;;;;;;;8226980;28;20018;-58
2024/01/06 12:03:10;;;;;;;1.88;1.77;;;;;;;;;;8224945;28;20096;-58
2024/01/06 12:07:14;;;;;;;3.53;2.25;;;;;;;;;;8223388;28;20611;-58
2024/01/06 12:11:14;;;;;;;;;;;;;;;;;;8220589;28;20054;-59
2024/01/06 12:15:14;;;;;;;3.45;1.92;;;;;;;;;;8218237;28;19924;-59
2024/01/06 12:19:14;;;;;;;2.58;2.28;;;;;;;;;;8220167;28;20105;-58
2024/01/06 12:23:23;;;;;;;3.20;2.83;;;;;;;;;;8215954;28;20562;-58
2024/01/06 12:27:24;;;;;;;3.40;1.85;;;;;;;;;;8212631;28;20284;-59
2024/01/06 12:31:26;;;;;;;3.65;1.60;;;;;;;;;;8217296;28;20035;-59
2024/01/06 12:35:27;;;;;;;3.53;2.28;;;;;;;;;;8219363;28;20171;-58
2024/01/06 12:39:28;;;;;;;1.60;1.50;;;;;;;;;;8218623;28;20042;-58
2024/01/06 12:43:28;;;;;;;1.80;1.70;;;;;;;;;;8220506;28;20289;-58
2024/01/06 12:47:28;;;;;;;2.08;1.52;;;;;;;;;;8219688;28;20135;-58
2024/01/06 12:51:29;;;;;;;1.43;1.33;;;;;;;;;;8214933;28;20022;-58
2024/01/06 12:55:29;;;;;;;1.58;1.48;;;;;;;;;;8221131;28;20369;-58
2024/01/06 12:59:30;;;;;;;1.55;1.45;;;;;;;;;;8216743;28;20080;-58
2024/01/06 13:03:30;;;;;;;2.47;1.55;;;;;;;;;;8224142;28;21087;-59
2024/01/06 13:07:30;;;;;;;1.63;1.52;;;;;;;;;;8220863;28;20025;-58
2024/01/06 13:11:31;;;;;;;1.67;1.58;;;;;;;;;;8222900;28;20026;-58
2024/01/06 13:15:31;;;;;;;2.53;1.60;;;;;;;;;;8235590;28;20361;-58
2024/01/06 13:19:31;;;;;;;3.63;1.42;;;;;;;;;;8222935;28;20052;-59
2024/01/06 13:23:32;;;;;;;1.40;1.30;;;;;;;;;;8226072;28;20833;-59
2024/01/06 13:27:33;;;;;;;1.42;1.33;;;;;;;;;;8229415;28;20340;-58
2024/01/06 13:31:33;;;;;;;1.50;1.40;;;;;;;;;;8219745;28;20034;-58
2024/01/06 13:35:34;;;;;;;2.00;1.50;;;;;;;;;;8220288;28;20129;-57
2024/01/06 13:39:34;;;;;;;1.20;1.10;;;;;;;;;;8219915;28;20034;-57
2024/01/06 13:43:34;;;;;;;1.90;1.13;;;;;;;;;;8218641;28;20058;-58
2024/01/06 13:47:34;;;;;;;1.02;1.02;;;;;;;;;;8238964;28;20177;-58
2024/01/06 13:51:35;;;;;;;1.30;1.20;;;;;;;;;;8231099;28;20391;-58
2024/01/06 13:55:36;;;;;;;2.25;1.20;;;;;;;;;;8219439;28;20386;-59
2024/01/06 13:59:42;;;;;;;0.90;0.90;;;;;;;;;;8214716;28;20030;-59
2024/01/06 14:03:42;;;;;;;1.20;0.80;;;;;;;;;;8221196;28;20034;-59
2024/01/06 14:07:45;;;;;;;2.35;1.20;;;;;;;;;;8211741;28;20029;-58
2024/01/06 14:11:45;;;;;;;1.00;0.90;;;;;;;;;;8214781;28;20034;-58
2024/01/06 14:15:45;;;;;;;1.00;1.00;;;;;;;;;;8218451;28;20034;-58
2024/01/06 14:19:46;;;;;;;1.58;1.10;;;;;;;;;;8204324;28;20327;-56
2024/01/06 14:23:47;;;;;;;1.10;1.10;;;;;;;;;;8219581;28;20107;-59
2024/01/06 14:27:48;;;;;;;0.90;0.90;;;;;;;;;;8217645;28;20273;-59
2024/01/06 14:31:48;;;;;;;1.63;0.90;;;;;;;;;;8214236;28;20030;-60
2024/01/06 14:35:48;;;;;;;0.70;0.70;;;;;;;;;;8212212;28;20033;-60
2024/01/06 14:39:48;;;;;;;1.25;0.80;;;;;;;;;;8201898;28;20030;-59
2024/01/06 14:43:49;;;;;;;0.90;0.90;;;;;;;;;;8207740;28;20575;-59
2024/01/06 14:47:50;;;;;;;1.00;1.00;;;;;;;;;;8222759;28;20034;-59
2024/01/06 14:51:51;;;;;;;1.70;1.60;;;;;;;;;;8206189;28;20018;-58
2024/01/06 14:55:51;;;;;;;2.05;1.95;;;;;;;;;;8201266;28;20504;-59
2024/01/06 14:59:51;;;;;;;2.65;2.15;;;;;;;;;;8204608;28;20905;-59
2024/01/06 15:03:51;;;;;;;3.15;2.85;;;;;;;;;;8202818;28;20212;-59
2024/01/06 15:07:51;;;;;;;4.13;2.67;;;;;;;;;;8196161;28;20601;-60
2024/01/06 15:11:51;;;;;;;4.05;3.20;;;;;;;;;;8204603;28;20407;-58
2024/01/06 15:15:52;;;;;;;3.47;3.17;;;;;;;;;;8202804;28;22053;-58
2024/01/06 15:19:52;;;;;;;3.75;3.08;;;;;;;;;;8202550;28;20467;-60
2024/01/06 15:23:54;;;;;;;3.80;3.50;;;;;;;;;;8204067;28;20646;-57
2024/01/06 15:27:54;;;;;;;3.15;2.85;;;;;;;;;;8206417;28;20951;-58
2024/01/06 15:31:57;;;;;;;3.97;3.22;;;;;;;;;;8205993;28;20045;-59
2024/01/06 15:35:57;;;;;;;4.60;3.05;;;;;;;;;;8213997;28;20041;-58
2024/01/06 15:39:57;;;;;;;4.15;3.20;;;;;;;;;;8223251;28;20033;-58
2024/01/06 15:43:58;;;;;;;3.58;3.20;;;;;;;;;;8218945;28;20461;-59
2024/01/06 15:47:58;;;;;;;6.25;2.88;;;;;;;;;;8224127;28;20764;-57
2024/01/06 15:51:59;;;;;;;4.88;3.00;;;;;;;;;;8220363;28;20033;-56
2024/01/06 15:55:59;;;;;;;3.47;2.78;;;;;;;;;;8222765;28;20026;-58
2024/01/06 16:00:00;;;;;;;2.95;2.50;;;;;;;;;;8228911;28;20022;-58
2024/01/06 16:04:01;;;;;;;3.53;2.95;;;;;;;;;;8217537;28;20049;-57
2024/01/06 16:08:01;;;;;;;2.45;2.25;;;;;;;;;;8220231;28;20021;-58
2024/01/06 16:12:03;;;;;;;5.22;2.80;;;;;;;;;;8218633;28;20565;-57
2024/01/06 16:16:04;;;;;;;3.15;2.58;;;;;;;;;;8215099;28;20590;-58
2024/01/06 16:20:05;;;;;;;4.47;2.70;;;;;;;;;;8219726;28;20088;-58
2024/01/06 16:24:06;;;;;;;3.78;2.38;;;;;;;;;;8216813;28;20022;-57
2024/01/06 16:28:11;;;;;;;3.05;2.55;;;;;;;;;;8225317;28;20277;-57
2024/01/06 16:32:11;;;;;;;3.10;2.50;;;;;;;;;;8217494;28;20035;-58
2024/01/06 16:36:12;;;;;;;2.78;2.35;;;;;;;;;;8220771;28;20029;-58
2024/01/06 16:40:12;;;;;;;2.95;2.70;;;;;;;;;;8218288;28;20026;-58
2024/01/06 16:44:12;;;;;;;2.80;2.60;;;;;;;;;;8221009;28;20030;-58
2024/01/06 16:48:12;;;;;;;3.03;2.50;;;;;;;;;;8208384;28;20105;-58
2024/01/06 16:52:12;;;;;;;4.25;2.75;;;;;;;;;;8207063;28;20471;-58
2024/01/06 16:56:13;;;;;;;3.00;2.67;;;;;;;;;;8205005;28;20360;-58
2024/01/06 17:00:13;;;;;;;3.88;2.60;;;;;;;;;;8208050;28;20284;-57
2024/01/06 17:04:13;;;;;;;3.45;2.83;;;;;;;;;;8208167;28;20033;-58
2024/01/06 17:08:14;;;;;;;3.80;3.00;;;;;;;;;;8207714;28;20018;-58
2024/01/06 17:12:14;;;;;;;3.00;2.70;;;;;;;;;;8221616;28;20025;-57
2024/01/06 17:16:14;;;;;;;3.03;2.70;;;;;;;;;;8206131;28;20398;-58
2024/01/06 17:20:15;;;;;;;5.90;3.33;;;;;;;;;;8203480;28;20018;-57
2024/01/06 17:24:15;;;;;;;4.35;2.95;;;;;;;;;;8206621;28;20444;-58
2024/01/06 17:28:15;;;;;;;3.25;2.90;;;;;;;;;;8205832;28;20034;-56
2024/01/06 17:32:15;;;;;;;4.28;3.30;;;;;;;;;;8204725;28;20030;-58
2024/01/06 17:36:16;;;;;;;4.03;3.20;;;;;;;;;;8205522;28;20037;-57
2024/01/06 17:40:17;;;;;;;3.42;3.13;;;;;;;;;;8209964;28;20437;-58
2024/01/06 17:44:18;;;;;;;3.85;3.33;;;;;;;;;;8207363;28;20495;-57
2024/01/06 17:48:18;;;;;;;5.60;3.67;;;;;;;;;;8206310;28;20046;-58
2024/01/06 17:52:18;;;;;;;5.05;4.25;;;;;;;;;;8204594;28;20276;-58
2024/01/06 17:56:19;;;;;;;5.75;4.25;;;;;;;;;;8207812;28;20269;-58
2024/01/06 18:00:20;;;;;;;4.47;3.92;;;;;;;;;;8205697;28;20041;-59
2024/01/06 18:04:20;;;;;;;4.85;3.92;;;;;;;;;;8206544;28;20065;-58
2024/01/06 18:08:21;;;;;;;5.78;4.25;;;;;;;;;;8203989;28;20478;-58
2024/01/06 18:12:22;;;;;;;6.35;4.72;;;;;;;;;;8187221;28;20032;-58
2024/01/06 18:16:22;;;;;;;6.45;4.93;;;;;;;;;;8203391;28;20034;-58
2024/01/06 18:20:22;;;;;;;6.00;4.22;;;;;;;;;;8205652;28;20024;-58
2024/01/06 18:24:23;;;;;;;5.15;4.05;;;;;;;;;;8206866;28;20077;-57
2024/01/06 18:28:24;;;;;;;5.05;3.85;;;;;;;;;;8208590;28;20543;-59
2024/01/06 18:32:24;;;;;;;6.07;4.28;;;;;;;;;;8205170;28;20026;-59
2024/01/06 18:36:24;;;;;;;7.20;4.63;;;;;;;;;;8207198;28;20588;-58
2024/01/06 18:40:24;;;;;;;8.45;5.97;;;;;;;;;;8204343;28;20406;-59
2024/01/06 18:44:24;;;;;;;6.45;5.00;;;;;;;;;;8204054;28;20751;-58
2024/01/06 18:48:25;;;;;;;4.80;4.30;;;;;;;;;;8208989;28;20027;-58
2024/01/06 18:52:25;;;;;;;4.97;3.92;;;;;;;;;;8221399;28;20280;-58
2024/01/06 18:56:27;;;;;;;7.20;4.75;;;;;;;;;;8210232;28;20140;-57
2024/01/06 19:00:27;;;;;;;6.88;4.70;;;;;;;;;;8212763;28;20034;-58
2024/01/06 19:04:27;;;;;;;6.70;4.97;;;;;;;;;;8216108;28;20022;-58
2024/01/06 19:08:27;;;;;;;6.38;4.57;;;;;;;;;;8220387;28;20018;-57
2024/01/06 19:12:27;;;;;;;10.55;4.75;;;;;;;;;;8221800;28;20074;-59
2024/01/06 19:16:28;;;;;;;6.53;4.72;;;;;;;;;;8215648;28;20612;-56
2024/01/06 19:20:28;;;;;;;6.55;4.20;;;;;;;;;;8218980;28;20050;-57
2024/01/06 19:24:28;;;;;;;6.40;4.82;;;;;;;;;;8219658;28;20412;-57
2024/01/06 19:28:28;;;;;;;7.53;4.85;;;;;;;;;;8221512;28;20026;-58
2024/01/06 19:32:28;;;;;;;6.50;4.50;;;;;;;;;;8221023;28;20328;-58
2024/01/06 19:36:28;;;;;;;8.38;4.57;;;;;;;;;;8217850;28;20631;-57
2024/01/06 19:40:29;;;;;;;5.73;4.47;;;;;;;;;;8222836;28;20030;-59
2024/01/06 19:44:29;;;;;;;6.68;4.05;;;;;;;;;;8222308;28;20805;-58
2024/01/06 19:48:30;;;;;;;7.18;4.75;;;;;;;;;;8217398;28;20045;-59
2024/01/06 19:52:30;;;;;;;8.95;4.82;;;;;;;;;;8223318;28;20443;-59
2024/01/06 19:56:30;;;;;;;5.32;3.97;;;;;;;;;;8217211;28;20025;-58
2024/01/06 20:00:31;;;;;;;6.07;4.25;;;;;;;;;;8218442;28;20497;-58
2024/01/06 20:04:31;;;;;;;5.68;3.63;;;;;;;;;;8220008;28;20534;-58
2024/01/06 20:08:32;;;;;;;5.50;3.65;;;;;;;;;;8221194;28;20029;-58
2024/01/06 20:12:32;;;;;;;5.72;4.07;;;;;;;;;;8219394;28;20014;-59
2024/01/06 20:16:34;;;;;;;6.20;4.00;;;;;;;;;;8218218;28;20034;-59
2024/01/06 20:20:34;;;;;;;6.57;3.90;;;;;;;;;;8220446;28;20025;-58
2024/01/06 20:24:34;;;;;;;5.32;3.70;;;;;;;;;;8218205;28;20018;-58
2024/01/06 20:28:34;;;;;;;5.82;4.10;;;;;;;;;;8218265;28;20034;-58
2024/01/06 20:32:35;;;;;;;6.78;4.22;;;;;;;;;;8216035;28;20029;-58
2024/01/06 20:36:35;;;;;;;5.13;3.90;;;;;;;;;;8214415;28;20030;-59
2024/01/06 20:40:35;;;;;;;5.32;3.78;;;;;;;;;;8217860;28;20014;-58
2024/01/06 20:44:36;;;;;;;4.95;3.70;;;;;;;;;;8221706;28;20026;-58
2024/01/06 20:48:36;;;;;;;5.63;3.88;;;;;;;;;;8218387;28;20030;-57
2024/01/06 20:52:36;;;;;;;4.65;3.83;;;;;;;;;;8214970;28;20121;-58
2024/01/06 20:56:38;;;;;;;4.50;3.60;;;;;;;;;;8215033;28;20600;-59
2024/01/06 21:00:38;;;;;;;4.20;3.70;;;;;;;;;;8214023;28;20137;-57
2024/01/06 21:04:38;;;;;;;3.92;3.28;;;;;;;;;;8221092;28;20376;-57
2024/01/06 21:08:38;;;;;;;4.47;3.92;;;;;;;;;;8216075;28;20025;-58
2024/01/06 21:12:39;;;;;;;5.38;4.00;;;;;;;;;;8223357;28;20014;-58
2024/01/06 21:16:39;;;;;;;3.97;3.50;;;;;;;;;;8216886;28;20077;-58
2024/01/06 21:20:40;;;;;;;4.15;3.45;;;;;;;;;;8217044;28;20018;-58
2024/01/06 21:24:41;;;;;;;4.07;3.05;;;;;;;;;;8214172;28;20038;-58
2024/01/06 21:28:41;;;;;;;4.38;3.42;;;;;;;;;;8225097;28;20105;-58
2024/01/06 21:32:41;;;;;;;6.18;3.72;;;;;;;;;;8230166;28;20057;-58
2024/01/06 21:36:41;;;;;;;3.78;3.25;;;;;;;;;;8226218;28;20069;-57
2024/01/06 21:40:42;;;;;;;4.32;3.60;;;;;;;;;;8227343;28;20373;-59
2024/01/06 21:44:42;;;;;;;3.55;3.20;;;;;;;;;;8227681;28;20029;-59
2024/01/06 21:48:43;;;;;;;4.07;3.20;;;;;;;;;;8225990;28;20061;-58
2024/01/06 21:52:43;;;;;;;3.78;3.28;;;;;;;;;;8229670;28;20017;-58
2024/01/06 21:56:46;;;;;;;3.80;3.15;;;;;;;;;;8228578;28;20823;-58
2024/01/06 22:00:47;;;;;;;4.97;2.80;;;;;;;;;;8227055;28;20042;-58
2024/01/06 22:04:48;;;;;;;3.38;2.95;;;;;;;;;;8229992;28;20033;-58
2024/01/06 22:08:48;;;;;;;4.28;3.25;;;;;;;;;;8226961;28;20029;-58
2024/01/06 22:12:48;;;;;;;3.35;3.05;;;;;;;;;;8230067;28;20011;-58
2024/01/06 22:16:49;;;;;;;3.50;3.20;;;;;;;;;;8239838;28;20061;-57
2024/01/06 22:20:50;;;;;;;4.70;3.40;;;;;;;;;;8226745;28;20745;-59
2024/01/06 22:24:51;;;;;;;4.45;3.50;;;;;;;;;;8229119;28;20038;-58
2024/01/06 22:28:51;;;;;;;3.92;3.20;;;;;;;;;;8227320;28;22819;-57
2024/01/06 22:32:51;;;;;;;3.78;3.38;;;;;;;;;;8232473;28;20572;-58
2024/01/06 22:36:52;;;;;;;3.35;3.05;;;;;;;;;;8222033;28;20123;-57
2024/01/06 22:40:53;;;;;;;3.55;3.17;;;;;;;;;;8212762;28;20113;-57
2024/01/06 22:44:53;;;;;;;3.70;3.38;;;;;;;;;;8220396;28;20823;-60
2024/01/06 22:48:54;;;;;;;4.85;3.85;;;;;;;;;;8220721;28;21121;-57
2024/01/06 22:52:54;;;;;;;3.95;3.42;;;;;;;;;;8218883;28;20833;-58
2024/01/06 22:56:55;;;;;;;3.83;3.40;;;;;;;;;;8220159;28;20037;-58
2024/01/06 23:00:56;;;;;;;3.92;3.53;;;;;;;;;;8220813;28;20392;-58
2024/01/06 23:04:57;;;;;;;4.38;3.58;;;;;;;;;;8219617;28;20030;-57
2024/01/06 23:08:58;;;;;;;4.07;3.63;;;;;;;;;;8216375;28;20608;-57
2024/01/06 23:12:58;;;;;;;4.70;3.40;;;;;;;;;;8221668;28;20027;-58
2024/01/06 23:16:58;;;;;;;4.60;3.65;;;;;;;;;;8214154;28;20804;-58
2024/01/06 23:20:59;;;;;;;4.90;3.75;;;;;;;;;;8223034;28;20126;-58
2024/01/06 23:24:59;;;;;;;4.68;3.67;;;;;;;;;;8222506;28;20034;-57
2024/01/06 23:28:59;;;;;;;4.10;3.70;;;;;;;;;;8221129;28;20521;-58
2024/01/06 23:32:59;;;;;;;5.07;4.40;;;;;;;;;;8218241;28;20047;-57
2024/01/06 23:36:59;;;;;;;5.45;3.70;;;;;;;;;;8219848;28;20325;-57
2024/01/06 23:41:00;;;;;;;4.82;4.07;;;;;;;;;;8219716;28;20167;-58
2024/01/06 23:45:00;;;;;;;4.55;3.80;;;;;;;;;;8220696;28;20046;-58
2024/01/06 23:49:00;;;;;;;5.80;4.30;;;;;;;;;;8220613;28;20151;-57
2024/01/06 23:53:00;;;;;;;4.88;4.35;;;;;;;;;;8219957;28;20084;-58
2024/01/06 23:57:00;;;;;;;4.30;3.72;;;;;;;;;;8220706;28;20623;-58
